Atlanta, Georgia
Traffic Map
Current Weather Conditions
Atlanta, Georgia
Scattered Clouds
Scattered Clouds
65°
Feels Like: 65°
Wind Chill: 65° Ceiling: Unl
Heat Index: 65° Visibility: 10mi
Dew Point: 54° Wind: 3mph
Humidity: 68% Direction: 200° (SSW)
Pressure: 30.19in Gusts: 0mph
Raw Report DataKATL 251052Z 20003KT 10SM SCT250 18/12 A3019 RMK AO2 SLP214 T01830122
Traffic Incident Summary
Active as of:
Severity:
Category:
InformationThere was an issue retrieving the traffic information for this location. Please try a different location or try again shortly.
Advertisements
Track Severe Weather on mobile